Time;durP1;ratioP1;P1;durP2;ratioP2;P2;SDS_P1;SDS_P2;PMS_P1;PMS_P2;Temp;Humidity;BMP_temperature;BMP_pressure;BME280_temperature;BME280_humidity;BME280_pressure;Samples;Min_cycle;Max_cycle;Signal;HPM_P1;HPM_P2
2021/12/04 00:02:04;;;;;;;4.25;1.75;;;;;;;;;;5018238;28;20030;-65
2021/12/04 00:04:34;;;;;;;4.00;2.10;;;;;;;;;;5016001;28;20393;-65
2021/12/04 00:07:02;;;;;;;6.20;2.55;;;;;;;;;;5019322;28;20048;-65
2021/12/04 00:09:29;;;;;;;7.45;2.53;;;;;;;;;;5016608;28;20563;-64
2021/12/04 00:12:01;;;;;;;6.03;2.75;;;;;;;;;;5020659;28;20079;-62
2021/12/04 00:14:28;;;;;;;4.70;3.13;;;;;;;;;;5016054;28;20060;-63
2021/12/04 00:16:56;;;;;;;6.03;3.03;;;;;;;;;;5023737;28;20489;-64
2021/12/04 00:19:23;;;;;;;6.20;2.90;;;;;;;;;;5012781;28;20026;-65
2021/12/04 00:21:50;;;;;;;7.18;3.30;;;;;;;;;;5010872;28;20041;-64
2021/12/04 00:24:18;;;;;;;7.80;3.25;;;;;;;;;;5016818;28;20074;-65
2021/12/04 00:26:45;;;;;;;10.25;3.47;;;;;;;;;;5018126;28;20033;-65
2021/12/04 00:29:12;;;;;;;5.78;3.30;;;;;;;;;;5020702;28;20477;-67
2021/12/04 00:31:45;;;;;;;8.38;3.58;;;;;;;;;;5017042;28;20044;-65
2021/12/04 00:34:12;;;;;;;8.20;3.17;;;;;;;;;;5016211;28;20018;-65
2021/12/04 00:50:15;;;;;;;5.75;3.25;;;;;;;;;;5021601;28;20073;-65
2021/12/04 00:52:42;;;;;;;6.05;3.75;;;;;;;;;;5030963;28;20056;-66
2021/12/04 00:55:09;;;;;;;6.90;3.67;;;;;;;;;;5022779;28;20505;-64
2021/12/04 00:57:38;;;;;;;6.68;3.65;;;;;;;;;;5024445;28;20057;-64
2021/12/04 01:00:06;;;;;;;7.30;3.67;;;;;;;;;;5021226;28;20036;-63
2021/12/04 01:02:33;;;;;;;7.78;3.47;;;;;;;;;;5021258;28;20151;-62
2021/12/04 01:05:00;;;;;;;8.75;3.72;;;;;;;;;;5013085;28;20084;-66
2021/12/04 01:07:27;;;;;;;6.85;3.80;;;;;;;;;;5021695;28;20389;-64
2021/12/04 01:09:55;;;;;;;5.75;3.35;;;;;;;;;;5016015;28;20639;-65
2021/12/04 01:12:22;;;;;;;6.53;3.00;;;;;;;;;;5024654;28;20022;-65
2021/12/04 01:14:49;;;;;;;8.30;3.67;;;;;;;;;;5024014;28;20028;-65
2021/12/04 01:17:16;;;;;;;4.95;3.08;;;;;;;;;;5015617;28;20026;-65
2021/12/04 01:19:43;;;;;;;6.47;3.42;;;;;;;;;;5021823;28;20026;-65
2021/12/04 01:22:11;;;;;;;7.18;3.50;;;;;;;;;;5024494;28;20045;-65
2021/12/04 01:24:38;;;;;;;6.40;3.15;;;;;;;;;;5021746;28;20129;-63
2021/12/04 01:27:07;;;;;;;8.00;2.88;;;;;;;;;;5016966;28;20063;-63
2021/12/04 01:29:34;;;;;;;9.25;2.95;;;;;;;;;;5022324;28;20147;-64
2021/12/04 01:32:02;;;;;;;9.27;2.97;;;;;;;;;;5023634;28;20029;-64
2021/12/04 01:34:29;;;;;;;10.55;3.25;;;;;;;;;;5022776;28;21266;-63
2021/12/04 01:36:56;;;;;;;6.15;3.00;;;;;;;;;;5024681;28;20022;-67
2021/12/04 01:39:23;;;;;;;6.45;2.97;;;;;;;;;;5020096;28;20474;-65
2021/12/04 01:41:50;;;;;;;5.40;2.60;;;;;;;;;;5015223;28;20068;-64
2021/12/04 01:44:17;;;;;;;6.45;2.75;;;;;;;;;;5012275;28;20507;-65
2021/12/04 01:46:44;;;;;;;7.63;2.92;;;;;;;;;;5012426;28;20030;-64
2021/12/04 01:49:11;;;;;;;5.22;2.53;;;;;;;;;;5020221;28;20128;-65
2021/12/04 01:51:38;;;;;;;7.63;4.72;;;;;;;;;;5021964;28;20530;-63
2021/12/04 01:54:06;;;;;;;21.85;12.10;;;;;;;;;;5019839;28;20030;-63
2021/12/04 01:56:36;;;;;;;37.80;22.50;;;;;;;;;;5010787;28;20045;-64
2021/12/04 01:59:03;;;;;;;39.08;22.52;;;;;;;;;;5013824;28;20483;-62
2021/12/04 02:01:32;;;;;;;39.45;22.58;;;;;;;;;;5014014;28;20025;-66
2021/12/04 02:03:59;;;;;;;29.50;18.70;;;;;;;;;;5012374;28;20433;-65
2021/12/04 02:06:26;;;;;;;30.48;18.85;;;;;;;;;;5014966;28;20513;-64
2021/12/04 02:08:53;;;;;;;24.85;16.48;;;;;;;;;;5019365;28;20033;-64
2021/12/04 02:11:20;;;;;;;21.25;14.00;;;;;;;;;;5014682;28;20076;-65
2021/12/04 02:13:47;;;;;;;22.50;13.88;;;;;;;;;;5023385;28;20017;-65
2021/12/04 02:16:15;;;;;;;24.08;15.45;;;;;;;;;;5015157;28;20485;-64
2021/12/04 02:18:42;;;;;;;35.38;8.52;;;;;;;;;;5026592;28;20021;-64
2021/12/04 02:21:09;;;;;;;25.30;13.20;;;;;;;;;;5022990;28;20555;-64
2021/12/04 02:23:36;;;;;;;14.60;3.70;;;;;;;;;;5015698;28;20021;-60
2021/12/04 02:26:03;;;;;;;10.02;4.15;;;;;;;;;;5023237;28;20029;-65
2021/12/04 02:28:30;;;;;;;5.65;2.78;;;;;;;;;;5023093;28;20036;-64
2021/12/04 02:30:58;;;;;;;16.80;3.80;;;;;;;;;;5022444;28;20022;-66
2021/12/04 02:33:25;;;;;;;10.10;3.90;;;;;;;;;;5020916;28;20075;-62
2021/12/04 02:35:53;;;;;;;9.90;5.00;;;;;;;;;;5017592;28;20022;-65
2021/12/04 02:38:23;;;;;;;10.25;5.10;;;;;;;;;;5018229;28;20024;-63
2021/12/04 02:40:54;;;;;;;13.65;5.28;;;;;;;;;;5022831;28;20572;-61
2021/12/04 02:43:22;;;;;;;15.52;3.63;;;;;;;;;;5022803;28;20022;-65
2021/12/04 02:45:49;;;;;;;9.50;3.65;;;;;;;;;;5020522;28;20037;-60
2021/12/04 02:48:17;;;;;;;5.05;2.80;;;;;;;;;;5021617;28;20049;-61
2021/12/04 02:50:45;;;;;;;8.85;2.88;;;;;;;;;;5017134;28;20116;-62
2021/12/04 02:53:12;;;;;;;6.00;3.03;;;;;;;;;;5019780;28;20018;-63
2021/12/04 02:55:40;;;;;;;7.45;2.83;;;;;;;;;;5021427;28;20535;-65
2021/12/04 02:58:07;;;;;;;6.65;2.75;;;;;;;;;;5020517;28;20404;-65
2021/12/04 03:00:35;;;;;;;11.63;3.10;;;;;;;;;;5022179;28;20068;-64
2021/12/04 03:03:03;;;;;;;4.15;2.33;;;;;;;;;;5024004;28;20101;-64
2021/12/04 03:05:30;;;;;;;7.40;2.42;;;;;;;;;;5023367;28;20021;-60
2021/12/04 03:07:58;;;;;;;7.00;2.10;;;;;;;;;;5021892;28;20136;-62
2021/12/04 03:10:27;;;;;;;7.88;2.08;;;;;;;;;;5027272;28;20256;-61
2021/12/04 03:12:57;;;;;;;5.03;2.13;;;;;;;;;;5022397;28;20408;-61
2021/12/04 03:15:24;;;;;;;7.65;2.28;;;;;;;;;;5013740;28;20448;-62
2021/12/04 03:17:51;;;;;;;6.13;3.50;;;;;;;;;;5010287;28;20041;-63
2021/12/04 03:20:19;;;;;;;5.53;3.28;;;;;;;;;;5010263;28;20026;-62
2021/12/04 03:22:48;;;;;;;5.25;2.88;;;;;;;;;;5012128;28;20033;-62
2021/12/04 03:25:18;;;;;;;7.57;2.95;;;;;;;;;;5011319;28;20038;-66
2021/12/04 03:27:48;;;;;;;4.70;3.10;;;;;;;;;;5011511;28;20034;-64
2021/12/04 03:30:36;;;;;;;5.50;2.85;;;;;;;;;;5011776;28;20026;-63
2021/12/04 03:41:07;;;;;;;5.15;2.53;;;;;;;;;;5011936;28;20084;-66
2021/12/04 03:43:34;;;;;;;4.70;2.53;;;;;;;;;;5011727;28;20036;-63
2021/12/04 03:46:02;;;;;;;5.43;2.30;;;;;;;;;;5011022;28;20058;-64
2021/12/04 03:50:58;;;;;;;4.93;2.55;;;;;;;;;;5011665;28;20038;-68
2021/12/04 03:53:25;;;;;;;6.18;2.78;;;;;;;;;;5011377;28;20033;-68
2021/12/04 03:55:53;;;;;;;4.57;2.35;;;;;;;;;;5010691;28;20041;-68
2021/12/04 03:58:20;;;;;;;4.85;2.45;;;;;;;;;;5010638;28;20022;-68
2021/12/04 04:00:47;;;;;;;3.20;2.22;;;;;;;;;;5010367;28;20445;-63
2021/12/04 04:03:15;;;;;;;4.47;2.50;;;;;;;;;;5010349;28;20022;-66
2021/12/04 04:05:42;;;;;;;3.80;2.15;;;;;;;;;;5010943;28;20108;-68
2021/12/04 04:08:13;;;;;;;3.75;2.15;;;;;;;;;;5010592;28;20049;-65
2021/12/04 04:10:42;;;;;;;4.40;2.33;;;;;;;;;;5010986;28;20556;-68
2021/12/04 04:13:11;;;;;;;5.32;2.65;;;;;;;;;;5011029;28;20109;-65
2021/12/04 04:15:39;;;;;;;3.95;2.35;;;;;;;;;;5010971;28;20572;-64
2021/12/04 04:18:06;;;;;;;4.15;2.00;;;;;;;;;;5010640;28;20117;-68
2021/12/04 04:20:33;;;;;;;3.50;2.20;;;;;;;;;;5010513;28;20105;-66
2021/12/04 04:23:00;;;;;;;4.35;2.55;;;;;;;;;;5010803;28;20033;-68
2021/12/04 04:25:27;;;;;;;4.43;2.38;;;;;;;;;;5011051;28;20101;-67
2021/12/04 04:27:54;;;;;;;3.60;2.15;;;;;;;;;;5010727;28;20034;-65
2021/12/04 04:30:21;;;;;;;3.65;2.00;;;;;;;;;;5011004;28;20056;-67
2021/12/04 04:32:50;;;;;;;4.57;2.03;;;;;;;;;;5011146;28;20072;-68
2021/12/04 04:35:23;;;;;;;4.28;1.95;;;;;;;;;;5010990;28;20022;-68
2021/12/04 04:40:43;;;;;;;5.88;2.33;;;;;;;;;;5009151;28;20556;-67
2021/12/04 04:59:59;;;;;;;2.85;1.83;;;;;;;;;;5010032;28;20132;-65
2021/12/04 05:13:33;;;;;;;2.85;1.73;;;;;;;;;;5010247;28;20026;-63
2021/12/04 05:16:10;;;;;;;3.15;1.77;;;;;;;;;;5009713;28;20052;-66
2021/12/04 05:18:41;;;;;;;2.95;1.73;;;;;;;;;;5009576;28;20056;-64
2021/12/04 05:21:11;;;;;;;2.90;1.67;;;;;;;;;;5010138;28;20397;-62
2021/12/04 05:23:41;;;;;;;3.53;1.55;;;;;;;;;;5010639;28;20054;-63
2021/12/04 05:26:10;;;;;;;3.83;2.05;;;;;;;;;;5010534;28;20783;-61
2021/12/04 05:28:37;;;;;;;2.90;1.70;;;;;;;;;;5008521;28;20681;-65
2021/12/04 05:31:04;;;;;;;4.45;1.70;;;;;;;;;;5012137;28;20034;-62
2021/12/04 05:33:31;;;;;;;2.92;1.70;;;;;;;;;;5013860;28;20104;-63
2021/12/04 05:35:58;;;;;;;3.03;1.80;;;;;;;;;;5013471;28;20422;-63
2021/12/04 05:38:26;;;;;;;2.55;1.70;;;;;;;;;;5013646;28;20121;-67
2021/12/04 05:40:53;;;;;;;4.30;2.00;;;;;;;;;;5013850;28;20026;-66
2021/12/04 05:43:22;;;;;;;2.75;1.88;;;;;;;;;;5013554;28;20025;-65
2021/12/04 05:46:02;;;;;;;3.40;1.70;;;;;;;;;;5012964;28;20034;-64
2021/12/04 05:51:14;;;;;;;2.53;1.73;;;;;;;;;;5013842;28;20022;-65
2021/12/04 05:53:56;;;;;;;3.03;1.73;;;;;;;;;;5013541;28;20030;-63
2021/12/04 05:56:23;;;;;;;2.42;1.30;;;;;;;;;;5013378;28;20033;-63
2021/12/04 05:58:50;;;;;;;3.70;1.50;;;;;;;;;;5012167;28;20026;-65
2021/12/04 06:01:19;;;;;;;2.30;1.52;;;;;;;;;;5013571;28;20172;-61
2021/12/04 06:03:47;;;;;;;3.15;1.40;;;;;;;;;;5013522;28;20129;-62
2021/12/04 06:06:15;;;;;;;4.35;1.73;;;;;;;;;;5013228;28;20120;-66
2021/12/04 06:08:43;;;;;;;2.20;1.27;;;;;;;;;;5013442;28;20101;-62
2021/12/04 06:11:10;;;;;;;2.70;1.65;;;;;;;;;;5012812;28;20030;-62
2021/12/04 06:13:37;;;;;;;3.08;1.50;;;;;;;;;;5012952;28;20358;-63
2021/12/04 06:16:04;;;;;;;2.78;1.83;;;;;;;;;;5013343;28;20036;-63
2021/12/04 06:18:32;;;;;;;3.72;1.73;;;;;;;;;;5013219;28;20018;-64
2021/12/04 06:23:44;;;;;;;5.15;1.30;;;;;;;;;;5013198;28;20157;-62
2021/12/04 06:26:11;;;;;;;2.10;1.35;;;;;;;;;;5011947;28;20026;-63
2021/12/04 06:28:39;;;;;;;2.15;1.42;;;;;;;;;;5012943;28;20050;-66
2021/12/04 06:31:08;;;;;;;2.92;1.23;;;;;;;;;;5012694;28;20143;-67
2021/12/04 06:33:36;;;;;;;3.03;1.30;;;;;;;;;;5012943;28;20058;-67
2021/12/04 06:36:03;;;;;;;3.58;1.30;;;;;;;;;;5012497;28;20384;-68
2021/12/04 06:38:30;;;;;;;1.95;1.35;;;;;;;;;;5012345;28;20036;-68
2021/12/04 06:40:57;;;;;;;2.20;1.20;;;;;;;;;;5012771;28;20037;-67
2021/12/04 06:43:25;;;;;;;1.23;1.05;;;;;;;;;;5012217;28;20814;-66
2021/12/04 06:46:03;;;;;;;1.77;1.10;;;;;;;;;;5012610;28;20091;-68
2021/12/04 06:48:38;;;;;;;2.00;1.33;;;;;;;;;;5012388;28;20076;-68
2021/12/04 06:53:55;;;;;;;3.35;1.35;;;;;;;;;;5012950;28;20022;-66
2021/12/04 06:56:24;;;;;;;1.98;1.13;;;;;;;;;;5012025;28;20428;-66
2021/12/04 06:58:53;;;;;;;2.65;1.30;;;;;;;;;;5012255;28;20375;-67
2021/12/04 07:01:20;;;;;;;1.92;1.00;;;;;;;;;;5011872;28;20037;-68
2021/12/04 07:03:48;;;;;;;1.70;1.10;;;;;;;;;;5012395;28;20032;-66
2021/12/04 07:06:15;;;;;;;4.15;1.40;;;;;;;;;;5012009;28;20041;-65
2021/12/04 07:08:42;;;;;;;1.73;1.10;;;;;;;;;;5011964;28;20042;-67
2021/12/04 07:11:09;;;;;;;2.42;1.20;;;;;;;;;;5011715;28;20022;-65
2021/12/04 07:13:36;;;;;;;2.05;1.20;;;;;;;;;;5012164;28;20084;-67
2021/12/04 07:16:05;;;;;;;1.58;1.05;;;;;;;;;;5011843;28;20367;-67
2021/12/04 07:18:33;;;;;;;1.80;0.90;;;;;;;;;;5012083;28;20367;-65
2021/12/04 07:21:00;;;;;;;1.40;1.02;;;;;;;;;;5011814;28;20065;-65
2021/12/04 07:23:27;;;;;;;1.75;0.98;;;;;;;;;;5011627;28;20033;-66
2021/12/04 07:25:54;;;;;;;1.67;1.08;;;;;;;;;;5011287;28;20030;-65
2021/12/04 07:28:21;;;;;;;1.50;0.90;;;;;;;;;;5012036;28;20017;-67
2021/12/04 07:30:48;;;;;;;1.90;0.93;;;;;;;;;;5010602;28;20025;-66
2021/12/04 07:33:15;;;;;;;1.52;0.80;;;;;;;;;;5015394;28;20029;-68
2021/12/04 07:35:42;;;;;;;2.10;1.00;;;;;;;;;;5031842;28;20803;-67
2021/12/04 07:38:10;;;;;;;1.55;1.00;;;;;;;;;;5031157;28;20443;-67
2021/12/04 07:40:38;;;;;;;1.90;1.00;;;;;;;;;;5031264;28;20123;-67
2021/12/04 07:43:05;;;;;;;1.35;0.80;;;;;;;;;;5031182;28;20037;-67
2021/12/04 07:45:32;;;;;;;1.65;0.80;;;;;;;;;;5031026;28;20037;-66
2021/12/04 07:47:59;;;;;;;1.55;0.82;;;;;;;;;;5031170;28;20048;-66
2021/12/04 07:50:26;;;;;;;2.08;0.90;;;;;;;;;;5031044;28;20037;-66
2021/12/04 07:52:54;;;;;;;2.17;0.80;;;;;;;;;;5029873;28;20044;-69
2021/12/04 07:55:21;;;;;;;0.85;0.85;;;;;;;;;;5030490;28;20059;-67
2021/12/04 07:57:47;;;;;;;3.50;0.85;;;;;;;;;;5031327;28;20025;-66
2021/12/04 08:00:16;;;;;;;1.73;1.00;;;;;;;;;;5030979;28;20109;-66
2021/12/04 08:02:43;;;;;;;3.58;1.02;;;;;;;;;;5030868;28;20504;-68
2021/12/04 08:05:11;;;;;;;1.73;0.90;;;;;;;;;;5031025;28;20029;-68
2021/12/04 08:07:39;;;;;;;1.30;0.90;;;;;;;;;;5031156;28;20056;-67
2021/12/04 08:10:07;;;;;;;1.80;0.90;;;;;;;;;;5030972;28;20376;-63
2021/12/04 08:12:35;;;;;;;2.13;0.80;;;;;;;;;;5030925;28;20033;-66
2021/12/04 08:15:04;;;;;;;3.33;0.77;;;;;;;;;;5030728;28;20080;-67
2021/12/04 08:17:30;;;;;;;1.25;0.90;;;;;;;;;;5030884;28;20029;-68
2021/12/04 08:19:57;;;;;;;1.15;0.70;;;;;;;;;;5028154;28;20033;-67
2021/12/04 08:22:25;;;;;;;1.25;0.80;;;;;;;;;;5029580;28;20037;-68
2021/12/04 08:24:52;;;;;;;1.85;0.70;;;;;;;;;;5028885;28;20496;-67
2021/12/04 08:27:19;;;;;;;2.38;0.95;;;;;;;;;;5028848;28;20022;-65
2021/12/04 08:29:46;;;;;;;1.92;0.80;;;;;;;;;;5028676;28;20029;-67
2021/12/04 08:32:13;;;;;;;1.80;0.70;;;;;;;;;;5028811;28;20025;-67
2021/12/04 08:34:40;;;;;;;2.75;0.85;;;;;;;;;;5029418;28;20099;-67
2021/12/04 08:37:08;;;;;;;2.72;0.73;;;;;;;;;;5028700;28;20025;-67
2021/12/04 08:39:35;;;;;;;1.27;0.60;;;;;;;;;;5029126;28;20032;-67
2021/12/04 08:42:05;;;;;;;0.75;0.60;;;;;;;;;;5028805;28;20041;-67
2021/12/04 08:44:33;;;;;;;1.65;0.75;;;;;;;;;;5028992;28;20032;-62
2021/12/04 08:47:00;;;;;;;1.30;0.50;;;;;;;;;;5029524;28;20072;-62
2021/12/04 08:49:29;;;;;;;0.90;0.52;;;;;;;;;;5028496;28;20057;-62
2021/12/04 08:51:57;;;;;;;3.28;0.75;;;;;;;;;;5029250;28;20029;-63
2021/12/04 08:54:24;;;;;;;1.65;0.60;;;;;;;;;;5028952;28;20037;-62
2021/12/04 08:56:51;;;;;;;1.30;0.60;;;;;;;;;;5027201;28;20038;-62
2021/12/04 08:59:18;;;;;;;1.48;0.60;;;;;;;;;;5029262;28;20477;-61
2021/12/04 09:01:45;;;;;;;1.13;0.70;;;;;;;;;;5028769;28;20038;-62
2021/12/04 09:04:15;;;;;;;3.03;0.65;;;;;;;;;;5028721;28;20025;-62
2021/12/04 09:06:42;;;;;;;0.68;0.50;;;;;;;;;;5030414;28;20770;-63
2021/12/04 09:09:10;;;;;;;0.68;0.50;;;;;;;;;;5032398;28;20025;-64
2021/12/04 09:11:43;;;;;;;0.93;0.55;;;;;;;;;;5032613;28;20060;-62
2021/12/04 09:14:10;;;;;;;1.20;0.80;;;;;;;;;;5032431;28;20029;-66
2021/12/04 09:16:37;;;;;;;0.80;0.75;;;;;;;;;;5032442;28;20041;-63
2021/12/04 09:19:04;;;;;;;1.15;0.50;;;;;;;;;;5032763;28;20459;-64
2021/12/04 09:21:33;;;;;;;2.97;0.50;;;;;;;;;;5031722;28;20026;-61
2021/12/04 09:24:49;;;;;;;1.20;0.60;;;;;;;;;;5032427;28;20113;-62
2021/12/04 09:34:56;;;;;;;1.55;0.77;;;;;;;;;;5031961;28;20061;-65
2021/12/04 10:02:07;;;;;;;1.63;0.57;;;;;;;;;;5031309;28;20409;-66
2021/12/04 10:18:43;;;;;;;1.10;0.47;;;;;;;;;;5030383;28;20041;-68
2021/12/04 10:34:28;;;;;;;1.10;0.45;;;;;;;;;;5031191;28;20087;-67
2021/12/04 10:37:04;;;;;;;0.82;0.50;;;;;;;;;;5031104;28;20464;-67
2021/12/04 10:39:31;;;;;;;0.52;0.40;;;;;;;;;;5031224;28;20109;-67
2021/12/04 10:41:59;;;;;;;0.55;0.45;;;;;;;;;;5030675;28;20448;-65
2021/12/04 10:44:27;;;;;;;0.50;0.40;;;;;;;;;;5030950;28;20083;-66
2021/12/04 10:47:11;;;;;;;0.95;0.40;;;;;;;;;;5030783;28;20116;-66
2021/12/04 10:52:47;;;;;;;0.80;0.47;;;;;;;;;;5031083;28;20028;-67
2021/12/04 10:55:18;;;;;;;1.60;0.55;;;;;;;;;;5030632;28;20099;-66
2021/12/04 11:03:02;;;;;;;0.47;0.40;;;;;;;;;;5030442;28;20029;-67
2021/12/04 11:05:52;;;;;;;0.73;0.40;;;;;;;;;;5030215;28;20132;-66
2021/12/04 11:39:09;;;;;;;0.40;0.30;;;;;;;;;;5029820;28;20051;-63
2021/12/04 11:44:22;;;;;;;1.20;0.50;;;;;;;;;;5029261;28;20029;-62
2021/12/04 11:46:53;;;;;;;2.25;0.50;;;;;;;;;;5028823;28;20104;-61
2021/12/04 11:49:26;;;;;;;1.13;0.40;;;;;;;;;;5025571;28;20088;-65
2021/12/04 11:51:57;;;;;;;1.20;0.47;;;;;;;;;;5027534;28;20527;-64
2021/12/04 11:54:30;;;;;;;0.60;0.30;;;;;;;;;;5029285;28;20489;-66
2021/12/04 11:57:07;;;;;;;0.65;0.40;;;;;;;;;;5028804;28;20026;-66
2021/12/04 11:59:35;;;;;;;1.10;0.40;;;;;;;;;;5026748;28;20091;-61
2021/12/04 12:02:03;;;;;;;0.55;0.30;;;;;;;;;;5016578;28;20124;-65
2021/12/04 12:04:36;;;;;;;1.00;0.40;;;;;;;;;;5022303;28;20017;-63
2021/12/04 12:07:23;;;;;;;1.70;0.40;;;;;;;;;;5021906;28;20029;-62
2021/12/04 12:10:05;;;;;;;0.57;0.25;;;;;;;;;;5020235;28;20091;-67
2021/12/04 12:12:34;;;;;;;0.60;0.40;;;;;;;;;;5020112;28;20033;-63
2021/12/04 12:15:05;;;;;;;0.57;0.30;;;;;;;;;;5021377;28;20103;-61
2021/12/04 12:17:37;;;;;;;2.58;0.40;;;;;;;;;;5021856;28;20030;-62
2021/12/04 12:20:13;;;;;;;0.77;0.40;;;;;;;;;;5020604;28;20021;-63
2021/12/04 12:25:24;;;;;;;1.60;0.35;;;;;;;;;;5022068;28;20667;-62
2021/12/04 12:31:48;;;;;;;1.48;0.63;;;;;;;;;;5015357;28;20040;-62
2021/12/04 12:36:23;;;;;;;2.33;0.55;;;;;;;;;;5015286;28;20076;-61
2021/12/04 12:38:56;;;;;;;1.33;0.50;;;;;;;;;;5015508;28;20025;-63
2021/12/04 12:41:28;;;;;;;1.77;0.40;;;;;;;;;;5020295;28;20342;-61
2021/12/04 12:44:14;;;;;;;1.55;0.50;;;;;;;;;;5023036;28;20061;-62
2021/12/04 12:46:46;;;;;;;1.95;0.65;;;;;;;;;;5027015;28;20465;-62
2021/12/04 12:49:19;;;;;;;3.08;0.40;;;;;;;;;;5026435;28;20042;-65
2021/12/04 12:51:52;;;;;;;5.15;0.70;;;;;;;;;;5017928;28;20037;-61
2021/12/04 12:54:24;;;;;;;1.90;0.38;;;;;;;;;;5018319;28;20068;-65
2021/12/04 12:56:57;;;;;;;4.10;0.47;;;;;;;;;;5019807;28;20030;-64
2021/12/04 13:13:55;;;;;;;1.60;0.50;;;;;;;;;;5011586;28;20049;-61
2021/12/04 13:16:31;;;;;;;2.60;0.38;;;;;;;;;;5011567;28;20037;-61
2021/12/04 13:19:06;;;;;;;4.00;0.50;;;;;;;;;;5014139;28;20449;-62
2021/12/04 13:21:38;;;;;;;1.27;0.50;;;;;;;;;;5017997;28;20042;-60
2021/12/04 13:24:06;;;;;;;1.88;0.60;;;;;;;;;;5015565;28;20026;-60
2021/12/04 13:26:38;;;;;;;4.70;0.43;;;;;;;;;;5020110;28;20555;-60
2021/12/04 13:29:07;;;;;;;0.73;0.30;;;;;;;;;;5018825;28;20026;-60
2021/12/04 13:31:37;;;;;;;2.10;0.60;;;;;;;;;;5012511;28;20026;-60
2021/12/04 13:34:07;;;;;;;1.42;0.50;;;;;;;;;;5019763;28;20037;-60
2021/12/04 13:36:34;;;;;;;1.85;0.60;;;;;;;;;;5011172;28;20065;-61
2021/12/04 13:39:12;;;;;;;1.75;0.40;;;;;;;;;;5015543;28;20398;-61
2021/12/04 13:41:40;;;;;;;1.50;0.40;;;;;;;;;;5011124;28;20096;-61
2021/12/04 13:44:09;;;;;;;2.42;0.40;;;;;;;;;;5011076;28;20021;-60
2021/12/04 13:46:43;;;;;;;0.85;0.40;;;;;;;;;;5011704;28;20025;-61
2021/12/04 13:49:10;;;;;;;1.95;0.50;;;;;;;;;;5013255;28;20045;-61
2021/12/04 13:51:38;;;;;;;1.92;0.60;;;;;;;;;;5022719;28;20099;-62
2021/12/04 13:54:05;;;;;;;1.48;0.50;;;;;;;;;;5025122;28;20040;-61
2021/12/04 13:56:33;;;;;;;1.33;0.35;;;;;;;;;;5024527;28;20108;-62
2021/12/04 13:59:02;;;;;;;3.38;0.55;;;;;;;;;;5025884;28;20032;-61
2021/12/04 14:01:30;;;;;;;1.88;0.50;;;;;;;;;;5024430;28;20037;-62
2021/12/04 14:03:58;;;;;;;1.25;0.40;;;;;;;;;;5019524;28;20100;-62
2021/12/04 14:06:25;;;;;;;2.33;0.50;;;;;;;;;;5021446;28;20075;-61
2021/12/04 14:08:58;;;;;;;1.38;0.63;;;;;;;;;;5022027;28;20024;-61
2021/12/04 14:11:32;;;;;;;1.38;0.40;;;;;;;;;;5021308;28;20069;-61
2021/12/04 14:14:00;;;;;;;3.03;0.40;;;;;;;;;;5014666;28;20026;-60
2021/12/04 14:16:27;;;;;;;1.15;0.43;;;;;;;;;;5027089;28;20034;-61
2021/12/04 14:18:54;;;;;;;0.98;0.52;;;;;;;;;;5020482;28;20060;-60
2021/12/04 14:21:21;;;;;;;2.13;0.50;;;;;;;;;;5021121;28;20026;-60
2021/12/04 14:23:49;;;;;;;1.75;0.80;;;;;;;;;;5017614;28;20040;-61
2021/12/04 14:26:17;;;;;;;1.00;0.40;;;;;;;;;;5018347;28;20029;-61
2021/12/04 14:28:44;;;;;;;1.48;0.47;;;;;;;;;;5012313;28;20034;-60
2021/12/04 14:31:12;;;;;;;3.40;0.50;;;;;;;;;;5026943;28;20064;-61
2021/12/04 14:33:42;;;;;;;2.53;0.70;;;;;;;;;;5018518;28;20604;-61
2021/12/04 14:36:11;;;;;;;3.03;1.38;;;;;;;;;;5021936;28;20022;-62
2021/12/04 14:38:44;;;;;;;3.40;0.52;;;;;;;;;;5014890;28;20037;-61
2021/12/04 14:41:11;;;;;;;1.10;0.40;;;;;;;;;;5009646;28;20474;-63
2021/12/04 14:43:40;;;;;;;3.33;0.90;;;;;;;;;;5010994;28;20026;-61
2021/12/04 14:46:10;;;;;;;1.55;0.47;;;;;;;;;;5008069;28;20040;-61
2021/12/04 14:48:51;;;;;;;2.88;0.45;;;;;;;;;;5010712;28;20045;-62
2021/12/04 14:51:21;;;;;;;10.00;1.30;;;;;;;;;;5010917;28;20040;-62
2021/12/04 14:53:56;;;;;;;1.83;0.55;;;;;;;;;;5019604;28;20520;-60
2021/12/04 14:56:26;;;;;;;1.58;0.60;;;;;;;;;;5018346;28;20045;-62
2021/12/04 14:58:54;;;;;;;4.93;1.00;;;;;;;;;;5020934;28;20040;-61
2021/12/04 15:01:23;;;;;;;7.78;0.93;;;;;;;;;;5008782;28;20042;-63
2021/12/04 15:03:51;;;;;;;9.63;1.50;;;;;;;;;;5017146;28;20452;-63
2021/12/04 15:06:19;;;;;;;3.80;1.30;;;;;;;;;;5027761;28;20032;-62
2021/12/04 15:09:14;;;;;;;5.32;1.10;;;;;;;;;;5018994;28;20517;-62
2021/12/04 15:11:42;;;;;;;4.97;1.08;;;;;;;;;;5016728;28;20083;-62
2021/12/04 15:14:15;;;;;;;5.40;1.05;;;;;;;;;;5017923;28;20021;-63
2021/12/04 15:16:49;;;;;;;4.43;1.38;;;;;;;;;;5020244;28;20030;-62
2021/12/04 15:19:38;;;;;;;3.80;1.05;;;;;;;;;;5016828;28;20742;-61
2021/12/04 15:22:09;;;;;;;2.85;0.85;;;;;;;;;;5023845;28;20034;-62
2021/12/04 15:24:39;;;;;;;3.95;1.40;;;;;;;;;;5020190;28;20026;-62
2021/12/04 15:27:08;;;;;;;2.50;1.23;;;;;;;;;;5021775;28;20024;-62
2021/12/04 15:29:36;;;;;;;2.70;1.38;;;;;;;;;;5017922;28;20108;-62
2021/12/04 15:32:08;;;;;;;3.95;1.63;;;;;;;;;;5017419;28;20429;-62
2021/12/04 15:34:39;;;;;;;4.82;1.25;;;;;;;;;;5021131;28;20025;-61
2021/12/04 15:37:07;;;;;;;5.10;1.58;;;;;;;;;;5020062;28;20049;-61
2021/12/04 15:39:37;;;;;;;8.20;1.55;;;;;;;;;;5020745;28;20033;-62
2021/12/04 15:47:30;;;;;;;2.88;0.95;;;;;;;;;;5015007;28;20076;-62
2021/12/04 15:53:09;;;;;;;4.75;1.17;;;;;;;;;;4980948;28;20117;-63
2021/12/04 15:55:42;;;;;;;2.08;1.00;;;;;;;;;;5006132;28;20045;-62
2021/12/04 15:58:16;;;;;;;5.20;1.10;;;;;;;;;;5020357;28;20023;-62
2021/12/04 16:00:46;;;;;;;3.17;1.20;;;;;;;;;;5016642;28;20504;-62
2021/12/04 16:03:16;;;;;;;4.10;1.10;;;;;;;;;;5017107;28;20038;-63
2021/12/04 16:05:45;;;;;;;3.53;0.93;;;;;;;;;;5019125;28;20026;-62
2021/12/04 16:08:17;;;;;;;5.85;1.23;;;;;;;;;;5013086;28;20033;-63
2021/12/04 16:10:45;;;;;;;4.30;1.15;;;;;;;;;;5007908;28;20405;-62
2021/12/04 16:13:13;;;;;;;2.10;1.15;;;;;;;;;;5008115;28;20044;-62
2021/12/04 16:15:40;;;;;;;5.25;1.00;;;;;;;;;;5009439;28;20034;-62
2021/12/04 16:18:08;;;;;;;2.10;1.02;;;;;;;;;;5008148;28;20097;-62
2021/12/04 16:20:35;;;;;;;2.35;1.02;;;;;;;;;;5006450;28;20026;-62
2021/12/04 16:23:04;;;;;;;4.30;1.10;;;;;;;;;;5009756;28;20087;-63
2021/12/04 16:25:36;;;;;;;6.88;1.27;;;;;;;;;;5010214;28;20018;-62
2021/12/04 16:28:16;;;;;;;3.72;1.13;;;;;;;;;;5011850;28;20022;-63
2021/12/04 16:35:53;;;;;;;2.53;1.20;;;;;;;;;;5014852;28;20033;-62
2021/12/04 16:38:21;;;;;;;6.18;2.00;;;;;;;;;;5018748;28;20013;-62
2021/12/04 16:40:48;;;;;;;24.52;7.47;;;;;;;;;;5023749;28;20048;-63
2021/12/04 16:43:23;;;;;;;30.58;9.93;;;;;;;;;;5021514;28;20030;-62
2021/12/04 16:45:53;;;;;;;33.13;10.15;;;;;;;;;;5017843;28;20021;-62
2021/12/04 16:48:21;;;;;;;57.45;17.27;;;;;;;;;;5017317;28;20128;-62
2021/12/04 16:56:30;;;;;;;63.78;18.77;;;;;;;;;;5017289;28;20044;-63
2021/12/04 16:59:02;;;;;;;63.88;16.77;;;;;;;;;;5019072;28;20496;-63
2021/12/04 17:01:29;;;;;;;;;;;;;;;;;;5016703;28;20512;-64
2021/12/04 17:03:56;;;;;;;50.65;12.70;;;;;;;;;;5015707;28;19917;-63
2021/12/04 17:06:23;;;;;;;52.60;12.90;;;;;;;;;;5018695;28;20500;-62
2021/12/04 17:08:50;;;;;;;43.63;12.50;;;;;;;;;;5018494;28;20030;-62
2021/12/04 17:11:18;;;;;;;43.30;11.85;;;;;;;;;;5021636;28;20052;-62
2021/12/04 17:13:45;;;;;;;36.53;10.70;;;;;;;;;;5018630;28;20026;-63
2021/12/04 17:16:14;;;;;;;38.80;10.90;;;;;;;;;;5021148;28;20026;-62
2021/12/04 17:18:50;;;;;;;36.95;10.88;;;;;;;;;;5021363;28;20095;-62
2021/12/04 17:21:17;;;;;;;33.78;9.95;;;;;;;;;;5018581;28;20038;-62
2021/12/04 17:23:44;;;;;;;38.58;10.77;;;;;;;;;;5208183;23;20085;-62
2021/12/04 17:26:12;;;;;;;28.30;9.70;;;;;;;;;;5015928;28;20034;-62
2021/12/04 17:28:44;;;;;;;14.02;4.38;;;;;;;;;;5026181;28;20030;-61
2021/12/04 17:31:16;;;;;;;27.63;8.35;;;;;;;;;;5021017;28;20057;-62
2021/12/04 17:33:44;;;;;;;27.52;8.93;;;;;;;;;;5026003;28;20036;-61
2021/12/04 17:36:13;;;;;;;30.55;9.15;;;;;;;;;;5022822;28;20567;-62
2021/12/04 17:38:43;;;;;;;33.78;8.05;;;;;;;;;;5033236;28;20037;-62
2021/12/04 17:41:12;;;;;;;28.48;8.45;;;;;;;;;;5044189;28;20025;-62
2021/12/04 17:43:39;;;;;;;25.98;8.02;;;;;;;;;;5042503;28;20033;-62
2021/12/04 17:46:06;;;;;;;23.30;6.72;;;;;;;;;;5042348;28;20021;-61
2021/12/04 17:48:34;;;;;;;28.20;7.72;;;;;;;;;;5044362;28;20082;-61
2021/12/04 17:51:02;;;;;;;21.05;7.53;;;;;;;;;;5043386;28;20096;-62
2021/12/04 17:53:30;;;;;;;24.65;7.55;;;;;;;;;;5044094;28;20532;-62
2021/12/04 17:55:58;;;;;;;15.88;4.28;;;;;;;;;;5022411;28;20034;-64
2021/12/04 17:58:26;;;;;;;26.55;7.85;;;;;;;;;;5023420;28;20022;-62
2021/12/04 18:00:55;;;;;;;23.85;7.18;;;;;;;;;;5042919;28;20033;-62
2021/12/04 18:03:28;;;;;;;20.23;7.38;;;;;;;;;;5044777;28;20072;-62
2021/12/04 18:06:08;;;;;;;24.33;7.13;;;;;;;;;;5035801;28;20469;-61
2021/12/04 18:08:39;;;;;;;21.50;6.30;;;;;;;;;;5019606;28;20066;-61
2021/12/04 18:11:07;;;;;;;22.65;6.15;;;;;;;;;;5030745;28;20061;-62
2021/12/04 18:13:36;;;;;;;22.88;6.22;;;;;;;;;;5031457;28;20022;-63
2021/12/04 18:16:08;;;;;;;21.17;6.70;;;;;;;;;;5024354;28;20392;-61
2021/12/04 18:18:36;;;;;;;;;;;;;;;;;;5020328;28;20496;-60
2021/12/04 18:21:04;;;;;;;21.02;6.05;;;;;;;;;;5022042;28;19917;-60